Time;durP1;ratioP1;P1;durP2;ratioP2;P2;SDS_P1;SDS_P2;PMS_P1;PMS_P2;Temp;Humidity;BMP_temperature;BMP_pressure;BME280_temperature;BME280_humidity;BME280_pressure;Samples;Min_cycle;Max_cycle;Signal;HPM_P1;HPM_P2
2023/06/07 00:01:08;;;;;;;15.95;5.05;;;;;;;;;;5032860;28;20521;-77
2023/06/07 00:03:35;;;;;;;14.57;5.50;;;;;;;;;;5052177;28;20045;-77
2023/06/07 00:06:01;;;;;;;15.93;4.95;;;;;;;;;;5051948;28;20044;-77
2023/06/07 00:08:30;;;;;;;12.20;5.18;;;;;;;;;;5052118;28;20048;-77
2023/06/07 00:10:56;;;;;;;14.27;5.50;;;;;;;;;;5052369;28;20067;-77
2023/06/07 00:13:23;;;;;;;14.15;4.97;;;;;;;;;;5051911;28;20052;-77
2023/06/07 00:15:49;;;;;;;14.20;5.35;;;;;;;;;;5051943;28;20111;-77
2023/06/07 00:18:16;;;;;;;17.63;5.47;;;;;;;;;;5033996;28;20462;-76
2023/06/07 00:20:45;;;;;;;14.05;5.30;;;;;;;;;;5051908;28;20544;-77
2023/06/07 00:23:14;;;;;;;20.08;5.30;;;;;;;;;;5052126;28;20037;-76
2023/06/07 00:25:40;;;;;;;17.45;5.30;;;;;;;;;;5034637;28;20045;-78
2023/06/07 00:28:06;;;;;;;17.17;5.35;;;;;;;;;;5033891;28;20426;-76
2023/06/07 00:30:33;;;;;;;18.85;5.75;;;;;;;;;;5051377;28;20476;-78
2023/06/07 00:32:59;;;;;;;19.52;5.72;;;;;;;;;;5052386;28;20041;-78
2023/06/07 00:35:25;;;;;;;16.63;5.50;;;;;;;;;;5052125;28;20045;-77
2023/06/07 00:37:51;;;;;;;16.75;5.28;;;;;;;;;;5052179;28;20501;-77
2023/06/07 00:40:17;;;;;;;19.65;5.38;;;;;;;;;;5051808;28;20047;-77
2023/06/07 00:42:43;;;;;;;12.82;5.30;;;;;;;;;;5052578;28;20048;-77
2023/06/07 00:45:10;;;;;;;14.77;5.53;;;;;;;;;;5049939;28;20417;-77
2023/06/07 00:47:39;;;;;;;14.90;5.10;;;;;;;;;;5050400;28;20048;-77
2023/06/07 00:50:06;;;;;;;14.88;5.28;;;;;;;;;;5051742;28;20389;-77
2023/06/07 00:52:36;;;;;;;15.50;5.38;;;;;;;;;;5052161;28;20533;-77
2023/06/07 00:55:03;;;;;;;14.68;5.32;;;;;;;;;;5052006;28;20066;-77
2023/06/07 00:57:33;;;;;;;16.27;5.50;;;;;;;;;;5051689;28;20037;-77
2023/06/07 01:00:00;;;;;;;13.98;5.35;;;;;;;;;;5052455;28;20067;-78
2023/06/07 01:02:29;;;;;;;15.00;5.18;;;;;;;;;;5051092;28;20127;-77
2023/06/07 01:04:55;;;;;;;22.92;5.78;;;;;;;;;;5055413;28;20049;-77
2023/06/07 01:07:24;;;;;;;15.45;5.10;;;;;;;;;;5037752;28;20512;-77
2023/06/07 01:09:51;;;;;;;17.48;4.95;;;;;;;;;;5036147;28;20124;-77
2023/06/07 01:12:18;;;;;;;14.75;4.78;;;;;;;;;;5054930;28;20045;-76
2023/06/07 01:14:45;;;;;;;15.40;5.10;;;;;;;;;;5055355;28;20044;-77
2023/06/07 01:17:12;;;;;;;16.55;5.40;;;;;;;;;;5037691;28;20438;-77
2023/06/07 01:19:39;;;;;;;14.82;5.10;;;;;;;;;;5054755;28;20044;-77
2023/06/07 01:22:05;;;;;;;17.17;5.50;;;;;;;;;;5055559;28;20048;-77
2023/06/07 01:24:32;;;;;;;15.68;4.95;;;;;;;;;;5036937;28;20045;-77
2023/06/07 01:26:59;;;;;;;15.10;5.35;;;;;;;;;;5055719;28;20125;-77
2023/06/07 01:29:30;;;;;;;14.55;4.97;;;;;;;;;;5055356;28;20051;-76
2023/06/07 01:31:58;;;;;;;17.00;5.25;;;;;;;;;;5037407;28;20040;-76
2023/06/07 01:34:24;;;;;;;15.18;4.72;;;;;;;;;;5037375;28;20045;-76
2023/06/07 01:36:50;;;;;;;19.88;5.38;;;;;;;;;;5021267;28;20045;-76
2023/06/07 01:39:19;;;;;;;19.55;4.93;;;;;;;;;;5055137;28;20370;-77
2023/06/07 01:41:46;;;;;;;15.48;4.78;;;;;;;;;;5055266;28;20041;-76
2023/06/07 01:44:14;;;;;;;16.90;5.25;;;;;;;;;;5037144;28;20107;-76
2023/06/07 01:46:41;;;;;;;17.10;5.30;;;;;;;;;;5037034;28;20083;-76
2023/06/07 01:49:07;;;;;;;21.00;4.75;;;;;;;;;;5054844;28;20056;-76
2023/06/07 01:51:33;;;;;;;16.60;4.60;;;;;;;;;;5054766;28;20094;-76
2023/06/07 01:54:01;;;;;;;14.55;4.70;;;;;;;;;;5036315;28;20343;-76
2023/06/07 01:56:39;;;;;;;18.70;5.03;;;;;;;;;;5036029;28;20132;-76
2023/06/07 01:59:24;;;;;;;13.82;4.63;;;;;;;;;;5053143;28;20102;-76
2023/06/07 02:01:55;;;;;;;21.58;5.50;;;;;;;;;;5037155;28;20081;-76
2023/06/07 02:04:25;;;;;;;18.20;4.75;;;;;;;;;;5054502;28;20052;-76
2023/06/07 02:06:52;;;;;;;18.50;5.22;;;;;;;;;;5054419;28;20087;-77
2023/06/07 02:09:19;;;;;;;18.10;5.57;;;;;;;;;;5049535;28;20143;-76
2023/06/07 02:11:47;;;;;;;12.70;5.07;;;;;;;;;;5069786;28;20047;-76
2023/06/07 02:14:13;;;;;;;17.45;5.22;;;;;;;;;;5036620;28;20409;-76
2023/06/07 02:16:40;;;;;;;16.50;5.50;;;;;;;;;;5054142;28;20076;-76
2023/06/07 02:19:07;;;;;;;14.88;5.10;;;;;;;;;;5054194;28;20076;-77
2023/06/07 02:21:36;;;;;;;14.88;5.20;;;;;;;;;;5054420;28;20341;-77
2023/06/07 02:24:05;;;;;;;17.33;5.15;;;;;;;;;;5054042;28;20037;-77
2023/06/07 02:26:32;;;;;;;15.43;4.80;;;;;;;;;;5035572;28;20068;-76
2023/06/07 02:28:58;;;;;;;14.43;4.60;;;;;;;;;;5053928;28;20434;-76
2023/06/07 02:31:25;;;;;;;21.25;4.95;;;;;;;;;;5054459;28;20037;-76
2023/06/07 02:33:52;;;;;;;18.90;5.13;;;;;;;;;;5053980;28;20045;-76
2023/06/07 02:36:21;;;;;;;16.33;4.78;;;;;;;;;;5036016;28;20049;-77
2023/06/07 02:38:48;;;;;;;15.35;4.60;;;;;;;;;;5069892;28;22288;-77
2023/06/07 02:41:15;;;;;;;17.90;5.28;;;;;;;;;;5053850;28;20485;-77
2023/06/07 02:43:42;;;;;;;16.45;4.75;;;;;;;;;;5035594;28;20183;-76
2023/06/07 02:46:08;;;;;;;20.02;4.57;;;;;;;;;;5052033;28;20167;-76
2023/06/07 02:48:35;;;;;;;15.23;4.43;;;;;;;;;;5054321;28;20110;-77
2023/06/07 02:51:01;;;;;;;15.50;4.20;;;;;;;;;;5053611;28;20037;-76
2023/06/07 02:53:27;;;;;;;17.92;4.55;;;;;;;;;;5053850;28;20077;-77
2023/06/07 02:55:53;;;;;;;19.17;4.70;;;;;;;;;;5053129;28;20447;-77
2023/06/07 02:58:20;;;;;;;15.60;5.20;;;;;;;;;;5051869;28;20073;-77
2023/06/07 03:00:49;;;;;;;16.40;4.63;;;;;;;;;;5053490;28;20037;-76
2023/06/07 03:03:16;;;;;;;15.55;4.68;;;;;;;;;;5053923;28;20045;-77
2023/06/07 03:05:44;;;;;;;19.02;5.35;;;;;;;;;;5053059;28;20106;-77
2023/06/07 03:08:10;;;;;;;18.05;4.50;;;;;;;;;;5050812;28;20053;-76
2023/06/07 03:10:37;;;;;;;15.80;5.00;;;;;;;;;;5049645;28;20048;-77
2023/06/07 03:13:03;;;;;;;14.75;4.75;;;;;;;;;;5052809;28;20071;-76
2023/06/07 03:15:30;;;;;;;17.42;5.05;;;;;;;;;;5053238;28;20045;-76
2023/06/07 03:17:56;;;;;;;17.20;4.93;;;;;;;;;;5052700;28;20041;-77
2023/06/07 03:20:22;;;;;;;13.52;5.15;;;;;;;;;;5051675;28;20053;-77
2023/06/07 03:22:48;;;;;;;16.98;5.13;;;;;;;;;;5052941;28;20072;-77
2023/06/07 03:25:14;;;;;;;17.60;4.93;;;;;;;;;;5053029;28;20068;-77
2023/06/07 03:27:41;;;;;;;18.58;5.10;;;;;;;;;;5052520;28;20490;-77
2023/06/07 03:30:07;;;;;;;17.30;5.70;;;;;;;;;;5034749;28;20115;-77
2023/06/07 03:32:33;;;;;;;19.45;4.97;;;;;;;;;;5032901;28;20041;-77
2023/06/07 03:34:59;;;;;;;14.55;4.65;;;;;;;;;;5033284;28;20045;-77
2023/06/07 03:37:25;;;;;;;16.25;5.45;;;;;;;;;;5052298;28;20041;-77
2023/06/07 03:39:52;;;;;;;17.33;5.05;;;;;;;;;;5052667;28;20055;-77
2023/06/07 03:42:18;;;;;;;13.52;4.38;;;;;;;;;;5052653;28;20037;-77
2023/06/07 03:44:44;;;;;;;12.52;4.47;;;;;;;;;;5052290;28;20045;-76
2023/06/07 03:47:10;;;;;;;15.30;4.85;;;;;;;;;;5035205;28;20102;-76
2023/06/07 03:49:36;;;;;;;14.77;4.50;;;;;;;;;;5067409;28;20068;-76
2023/06/07 03:52:02;;;;;;;15.23;4.22;;;;;;;;;;5052413;28;20037;-76
2023/06/07 03:54:28;;;;;;;17.00;4.32;;;;;;;;;;5034238;28;20056;-76
2023/06/07 03:56:56;;;;;;;15.82;4.05;;;;;;;;;;5051944;28;20395;-77
2023/06/07 03:59:25;;;;;;;15.95;4.40;;;;;;;;;;5034403;28;20085;-77
2023/06/07 04:01:52;;;;;;;18.58;4.38;;;;;;;;;;5051857;28;20037;-77
2023/06/07 04:04:18;;;;;;;11.30;4.20;;;;;;;;;;5067864;28;20139;-77
2023/06/07 04:06:44;;;;;;;14.15;4.32;;;;;;;;;;5034260;28;20060;-77
2023/06/07 04:09:10;;;;;;;13.30;4.05;;;;;;;;;;5052000;28;20454;-77
2023/06/07 04:11:36;;;;;;;18.23;4.30;;;;;;;;;;5052224;28;20079;-77
2023/06/07 04:14:02;;;;;;;10.20;3.72;;;;;;;;;;5049957;28;20053;-77
2023/06/07 04:16:29;;;;;;;16.42;4.05;;;;;;;;;;5052294;28;20099;-77
2023/06/07 04:18:55;;;;;;;10.85;3.70;;;;;;;;;;5052244;28;20037;-77
2023/06/07 04:21:22;;;;;;;12.93;4.13;;;;;;;;;;5051931;28;20045;-77
2023/06/07 04:23:48;;;;;;;12.75;3.88;;;;;;;;;;5052227;28;20063;-77
2023/06/07 04:26:18;;;;;;;18.33;4.47;;;;;;;;;;5033165;28;20033;-77
2023/06/07 04:28:45;;;;;;;16.45;4.13;;;;;;;;;;5050947;28;20484;-77
2023/06/07 04:31:12;;;;;;;12.68;3.40;;;;;;;;;;5054468;28;20037;-77
2023/06/07 04:33:39;;;;;;;15.80;3.85;;;;;;;;;;5031202;28;20063;-76
2023/06/07 04:36:08;;;;;;;16.02;4.13;;;;;;;;;;5026396;28;20053;-76
2023/06/07 04:38:34;;;;;;;14.63;3.97;;;;;;;;;;5051750;28;20045;-76
2023/06/07 04:41:06;;;;;;;14.93;3.50;;;;;;;;;;5051425;28;20068;-77
2023/06/07 04:43:36;;;;;;;11.55;3.33;;;;;;;;;;5037606;28;20238;-77
2023/06/07 04:46:02;;;;;;;13.20;3.90;;;;;;;;;;5065219;28;20049;-78
2023/06/07 04:48:28;;;;;;;19.05;4.07;;;;;;;;;;5050975;28;20136;-77
2023/06/07 04:51:13;;;;;;;14.20;3.95;;;;;;;;;;5051558;28;20123;-78
2023/06/07 04:53:42;;;;;;;16.77;3.90;;;;;;;;;;5050009;28;20048;-78
2023/06/07 04:56:09;;;;;;;14.48;3.72;;;;;;;;;;5066081;28;20434;-78
2023/06/07 04:58:36;;;;;;;15.82;3.92;;;;;;;;;;5063725;28;20450;-77
2023/06/07 05:01:03;;;;;;;12.32;3.85;;;;;;;;;;5050871;28;20124;-77
2023/06/07 05:03:31;;;;;;;13.65;3.95;;;;;;;;;;5051247;28;20037;-75
2023/06/07 05:06:02;;;;;;;13.93;3.65;;;;;;;;;;5032019;28;20075;-81
2023/06/07 05:08:28;;;;;;;13.52;3.95;;;;;;;;;;5055549;28;20156;-81
2023/06/07 05:10:54;;;;;;;14.05;3.90;;;;;;;;;;5046948;28;20128;-81
2023/06/07 05:13:20;;;;;;;11.10;3.63;;;;;;;;;;5032965;28;20045;-80
2023/06/07 05:15:50;;;;;;;9.45;3.45;;;;;;;;;;5034042;28;20405;-81
2023/06/07 05:18:19;;;;;;;12.93;3.80;;;;;;;;;;5051881;28;20110;-80
2023/06/07 05:20:46;;;;;;;15.23;3.60;;;;;;;;;;5051789;28;20045;-80
2023/06/07 05:23:18;;;;;;;13.65;3.88;;;;;;;;;;5034305;28;20037;-81
2023/06/07 05:25:44;;;;;;;12.75;4.00;;;;;;;;;;5034171;28;20080;-80
2023/06/07 05:28:11;;;;;;;17.33;4.00;;;;;;;;;;5050542;28;20051;-81
2023/06/07 05:30:37;;;;;;;14.02;4.13;;;;;;;;;;5049451;28;20041;-81
2023/06/07 05:33:03;;;;;;;10.32;3.38;;;;;;;;;;5033713;28;20049;-81
2023/06/07 05:35:29;;;;;;;15.07;3.83;;;;;;;;;;5033344;28;20080;-80
2023/06/07 05:37:55;;;;;;;14.95;3.80;;;;;;;;;;5048970;28;20075;-81
2023/06/07 05:40:21;;;;;;;12.40;3.55;;;;;;;;;;5051314;28;20037;-80
2023/06/07 05:42:50;;;;;;;16.15;4.82;;;;;;;;;;5050857;28;20037;-81
2023/06/07 05:45:16;;;;;;;16.05;4.15;;;;;;;;;;5050355;28;20147;-81
2023/06/07 05:47:43;;;;;;;15.88;3.88;;;;;;;;;;5055198;28;20052;-81
2023/06/07 05:50:10;;;;;;;11.10;3.35;;;;;;;;;;5036853;28;20041;-81
2023/06/07 05:52:40;;;;;;;12.18;3.83;;;;;;;;;;5054658;28;20045;-81
2023/06/07 05:55:07;;;;;;;10.75;3.47;;;;;;;;;;5020225;28;20049;-80
2023/06/07 05:57:33;;;;;;;11.50;3.67;;;;;;;;;;5055211;28;20457;-80
2023/06/07 05:59:59;;;;;;;12.63;3.78;;;;;;;;;;5054730;28;20049;-80
2023/06/07 06:02:28;;;;;;;10.43;3.85;;;;;;;;;;5036743;28;20128;-80
2023/06/07 06:04:55;;;;;;;17.98;4.40;;;;;;;;;;5036397;28;20049;-80
2023/06/07 06:07:21;;;;;;;12.13;3.60;;;;;;;;;;5054605;28;20087;-80
2023/06/07 06:09:47;;;;;;;17.92;4.40;;;;;;;;;;5036255;28;20057;-80
2023/06/07 06:12:13;;;;;;;15.55;5.25;;;;;;;;;;5054999;28;20405;-80
2023/06/07 06:14:39;;;;;;;14.80;4.05;;;;;;;;;;5054402;28;20444;-73
2023/06/07 06:17:06;;;;;;;12.68;3.95;;;;;;;;;;5054619;28;20431;-73
2023/06/07 06:19:32;;;;;;;14.60;4.03;;;;;;;;;;5054090;28;20052;-73
2023/06/07 06:21:58;;;;;;;15.52;4.45;;;;;;;;;;5036231;28;20131;-81
2023/06/07 06:24:24;;;;;;;14.75;3.92;;;;;;;;;;5054118;28;20053;-80
2023/06/07 06:26:50;;;;;;;16.23;4.20;;;;;;;;;;5034726;28;20096;-80
2023/06/07 06:29:17;;;;;;;11.15;3.97;;;;;;;;;;5016351;28;20049;-81
2023/06/07 06:31:43;;;;;;;9.93;3.50;;;;;;;;;;5023931;28;20124;-81
2023/06/07 06:34:10;;;;;;;11.98;3.67;;;;;;;;;;5036012;28;20045;-80
2023/06/07 06:36:36;;;;;;;12.02;3.97;;;;;;;;;;5036254;28;20056;-80
2023/06/07 06:39:03;;;;;;;11.63;3.83;;;;;;;;;;5036574;28;20090;-80
2023/06/07 06:41:30;;;;;;;13.63;3.58;;;;;;;;;;5035252;28;20067;-81
2023/06/07 06:43:56;;;;;;;11.45;3.58;;;;;;;;;;5052073;28;20049;-81
2023/06/07 06:46:22;;;;;;;10.95;3.63;;;;;;;;;;5034732;28;20048;-81
2023/06/07 06:48:48;;;;;;;9.70;3.50;;;;;;;;;;5053616;28;20044;-81
2023/06/07 06:51:15;;;;;;;13.93;4.07;;;;;;;;;;5051583;28;20401;-81
2023/06/07 06:53:41;;;;;;;10.65;3.67;;;;;;;;;;5036125;28;20048;-80
2023/06/07 06:56:07;;;;;;;14.13;3.70;;;;;;;;;;5053996;28;20041;-80
2023/06/07 06:58:34;;;;;;;14.25;3.70;;;;;;;;;;5053166;28;20123;-81
2023/06/07 07:01:02;;;;;;;11.27;3.47;;;;;;;;;;5053621;28;20466;-80
2023/06/07 07:03:28;;;;;;;13.88;4.25;;;;;;;;;;5018704;28;20268;-81
2023/06/07 07:05:54;;;;;;;11.95;4.18;;;;;;;;;;5019291;28;20432;-82
2023/06/07 07:08:20;;;;;;;12.18;4.00;;;;;;;;;;5035598;28;20138;-81
2023/06/07 07:10:47;;;;;;;10.75;3.75;;;;;;;;;;5053067;28;20041;-82
2023/06/07 07:13:13;;;;;;;12.35;3.40;;;;;;;;;;5052340;28;20049;-82
2023/06/07 07:15:39;;;;;;;11.82;3.58;;;;;;;;;;5052210;28;20041;-82
2023/06/07 07:18:07;;;;;;;12.98;3.50;;;;;;;;;;5035959;28;20386;-81
2023/06/07 07:20:33;;;;;;;11.23;3.55;;;;;;;;;;5035046;28;20099;-81
2023/06/07 07:23:01;;;;;;;12.20;3.50;;;;;;;;;;5053111;28;20136;-80
2023/06/07 07:25:28;;;;;;;11.80;3.63;;;;;;;;;;5033530;28;20094;-81
2023/06/07 07:27:54;;;;;;;12.30;3.60;;;;;;;;;;5068757;28;20055;-81
2023/06/07 07:30:20;;;;;;;10.43;3.50;;;;;;;;;;5052999;28;20493;-81
2023/06/07 07:32:46;;;;;;;10.27;3.28;;;;;;;;;;5035351;28;20053;-82
2023/06/07 07:35:12;;;;;;;11.50;3.63;;;;;;;;;;5052885;28;20434;-81
2023/06/07 07:37:39;;;;;;;15.23;3.85;;;;;;;;;;5052871;28;20045;-82
2023/06/07 07:40:06;;;;;;;9.60;3.30;;;;;;;;;;5035043;28;20482;-83
2023/06/07 07:42:32;;;;;;;10.90;3.88;;;;;;;;;;5035143;28;20509;-81
2023/06/07 07:44:58;;;;;;;10.20;3.30;;;;;;;;;;5052665;28;20090;-81
2023/06/07 07:47:24;;;;;;;11.18;3.65;;;;;;;;;;5052023;28;20044;-81
2023/06/07 07:49:51;;;;;;;10.27;3.80;;;;;;;;;;5049429;28;20049;-81
2023/06/07 07:52:18;;;;;;;11.43;3.80;;;;;;;;;;5049923;28;20040;-79
2023/06/07 07:54:44;;;;;;;11.48;3.47;;;;;;;;;;5052046;28;20099;-81
2023/06/07 07:57:10;;;;;;;11.57;3.47;;;;;;;;;;5068247;28;20184;-80
2023/06/07 07:59:36;;;;;;;15.90;3.78;;;;;;;;;;5068238;28;20048;-82
2023/06/07 08:02:03;;;;;;;12.05;4.05;;;;;;;;;;5034841;28;20140;-80
2023/06/07 08:04:30;;;;;;;9.90;3.20;;;;;;;;;;5052306;28;20128;-81
2023/06/07 08:06:56;;;;;;;12.77;3.70;;;;;;;;;;5052364;28;20413;-79
2023/06/07 08:09:22;;;;;;;8.98;3.63;;;;;;;;;;5039628;28;20555;-78
2023/06/07 08:11:49;;;;;;;11.40;3.65;;;;;;;;;;5032644;28;20034;-79
2023/06/07 08:14:15;;;;;;;13.40;4.15;;;;;;;;;;5032319;28;20052;-79
2023/06/07 08:16:41;;;;;;;11.95;3.90;;;;;;;;;;5051709;28;20045;-78
2023/06/07 08:19:08;;;;;;;14.05;4.00;;;;;;;;;;5067638;28;20175;-78
2023/06/07 08:21:35;;;;;;;9.98;3.65;;;;;;;;;;5052110;28;20413;-79
2023/06/07 08:24:01;;;;;;;10.35;3.72;;;;;;;;;;5051867;28;20056;-79
2023/06/07 08:26:27;;;;;;;16.05;4.28;;;;;;;;;;5052356;28;20135;-79
2023/06/07 08:28:54;;;;;;;9.40;3.72;;;;;;;;;;5033907;28;20060;-78
2023/06/07 08:31:22;;;;;;;12.27;3.97;;;;;;;;;;5032846;28;20075;-78
2023/06/07 08:33:48;;;;;;;11.40;3.78;;;;;;;;;;5067111;28;20045;-78
2023/06/07 08:36:15;;;;;;;12.90;4.20;;;;;;;;;;5051458;28;20047;-79
2023/06/07 08:38:41;;;;;;;12.18;4.28;;;;;;;;;;5051959;28;20049;-79
2023/06/07 08:41:07;;;;;;;9.55;3.90;;;;;;;;;;5051764;28;20071;-79
2023/06/07 08:43:35;;;;;;;13.43;4.10;;;;;;;;;;5033877;28;20098;-79
2023/06/07 08:46:05;;;;;;;13.43;4.28;;;;;;;;;;5050742;28;20132;-78
2023/06/07 08:48:35;;;;;;;11.77;4.18;;;;;;;;;;5033958;28;20123;-78
2023/06/07 08:51:02;;;;;;;13.40;3.97;;;;;;;;;;5066966;28;20045;-79
2023/06/07 08:53:30;;;;;;;10.27;3.92;;;;;;;;;;5051596;28;20345;-78
2023/06/07 08:55:58;;;;;;;13.35;5.55;;;;;;;;;;5034249;28;20041;-79
2023/06/07 08:58:24;;;;;;;11.60;4.47;;;;;;;;;;5067147;28;20052;-77
2023/06/07 09:00:51;;;;;;;11.18;4.10;;;;;;;;;;5051756;28;20077;-79
2023/06/07 09:03:17;;;;;;;11.90;4.00;;;;;;;;;;5033591;28;20041;-79
2023/06/07 09:05:43;;;;;;;9.55;4.18;;;;;;;;;;5033705;28;20044;-79
2023/06/07 09:08:09;;;;;;;10.32;3.72;;;;;;;;;;5047355;28;20071;-78
2023/06/07 09:10:35;;;;;;;10.30;3.58;;;;;;;;;;5031834;28;20450;-79
2023/06/07 09:13:01;;;;;;;16.10;4.50;;;;;;;;;;5031773;28;20075;-79
2023/06/07 09:15:28;;;;;;;9.50;3.75;;;;;;;;;;5031603;28;20041;-78
2023/06/07 09:18:02;;;;;;;10.40;3.70;;;;;;;;;;5031572;28;20049;-77
2023/06/07 09:20:28;;;;;;;9.88;3.60;;;;;;;;;;5030589;28;20049;-78
2023/06/07 09:23:24;;;;;;;10.82;3.85;;;;;;;;;;5035653;28;20045;-79
2023/06/07 09:25:54;;;;;;;15.02;3.72;;;;;;;;;;5017261;28;20198;-78
2023/06/07 09:28:20;;;;;;;11.32;3.97;;;;;;;;;;5017736;28;20045;-79
2023/06/07 09:30:54;;;;;;;11.57;4.03;;;;;;;;;;5035031;28;20445;-79
2023/06/07 09:33:30;;;;;;;11.65;4.22;;;;;;;;;;5017776;28;20056;-80
2023/06/07 09:36:03;;;;;;;14.57;4.50;;;;;;;;;;5017351;28;20049;-78
2023/06/07 09:38:29;;;;;;;12.02;4.00;;;;;;;;;;5046079;28;20045;-72
2023/06/07 09:40:56;;;;;;;13.77;4.35;;;;;;;;;;5054571;28;20350;-72
2023/06/07 09:43:22;;;;;;;14.07;4.22;;;;;;;;;;5060705;28;20455;-72
2023/06/07 09:45:55;;;;;;;13.10;4.40;;;;;;;;;;5035101;28;20041;-73
2023/06/07 09:48:21;;;;;;;13.77;4.32;;;;;;;;;;5054160;28;20057;-72
2023/06/07 09:51:06;;;;;;;12.90;5.00;;;;;;;;;;5026054;28;20060;-72
2023/06/07 09:53:48;;;;;;;13.73;5.03;;;;;;;;;;5040729;28;20040;-72
2023/06/07 09:56:17;;;;;;;15.38;4.22;;;;;;;;;;5053597;28;20128;-71
2023/06/07 09:58:46;;;;;;;12.65;4.30;;;;;;;;;;5017986;28;20397;-71
2023/06/07 10:01:12;;;;;;;13.18;4.55;;;;;;;;;;5034622;28;20059;-73
2023/06/07 10:03:46;;;;;;;11.18;4.47;;;;;;;;;;5054768;28;20120;-74
2023/06/07 10:06:14;;;;;;;14.40;4.87;;;;;;;;;;5067198;28;20140;-77
2023/06/07 10:08:41;;;;;;;11.82;4.90;;;;;;;;;;5046094;28;20068;-76
2023/06/07 10:11:07;;;;;;;15.60;4.70;;;;;;;;;;5051696;28;20041;-76
2023/06/07 10:13:34;;;;;;;11.07;4.68;;;;;;;;;;5051584;28;20079;-75
2023/06/07 10:16:00;;;;;;;14.13;4.90;;;;;;;;;;5033802;28;20543;-76
2023/06/07 10:18:26;;;;;;;13.10;4.80;;;;;;;;;;5051700;28;20053;-77
2023/06/07 10:20:56;;;;;;;14.02;4.50;;;;;;;;;;5033392;28;20405;-75
2023/06/07 10:23:32;;;;;;;11.73;3.95;;;;;;;;;;5051106;28;20437;-76
2023/06/07 10:25:58;;;;;;;;;;;;;;;;;;5050400;28;20139;-76
2023/06/07 10:28:24;;;;;;;;;;;;;;;;;;5032470;28;20008;-76
2023/06/07 10:30:50;;;;;;;;;;;;;;;;;;5051876;28;19925;-76
2023/06/07 10:33:17;;;;;;;11.52;3.88;;;;;;;;;;5030341;28;19947;-76
2023/06/07 10:35:43;;;;;;;12.27;4.07;;;;;;;;;;5051051;28;20405;-76
2023/06/07 10:38:10;;;;;;;11.10;4.28;;;;;;;;;;5052809;28;20178;-76
2023/06/07 10:40:36;;;;;;;12.15;4.65;;;;;;;;;;5069972;28;20052;-76
2023/06/07 10:43:03;;;;;;;12.70;4.47;;;;;;;;;;5069889;28;20040;-76
2023/06/07 10:45:29;;;;;;;14.63;4.30;;;;;;;;;;5054286;28;20124;-76
2023/06/07 10:47:55;;;;;;;10.30;4.00;;;;;;;;;;5054359;28;20509;-76
2023/06/07 10:50:27;;;;;;;11.63;4.05;;;;;;;;;;5068902;28;20502;-75
2023/06/07 10:52:57;;;;;;;11.20;4.40;;;;;;;;;;5035981;28;20055;-76
2023/06/07 10:55:26;;;;;;;9.55;4.43;;;;;;;;;;5054084;28;20049;-76
2023/06/07 10:57:53;;;;;;;16.35;5.05;;;;;;;;;;5069684;28;20060;-76
2023/06/07 11:00:29;;;;;;;13.35;4.20;;;;;;;;;;5053918;28;20037;-77
2023/06/07 11:03:16;;;;;;;10.55;4.15;;;;;;;;;;5054117;28;20051;-74
2023/06/07 11:06:06;;;;;;;8.25;3.63;;;;;;;;;;5069466;28;20371;-76
2023/06/07 11:08:36;;;;;;;10.48;3.70;;;;;;;;;;5052981;28;20045;-75
2023/06/07 11:11:02;;;;;;;8.00;3.50;;;;;;;;;;5053412;28;20110;-77
2023/06/07 11:13:44;;;;;;;10.00;3.47;;;;;;;;;;5036042;28;20375;-77
2023/06/07 11:16:28;;;;;;;10.23;3.38;;;;;;;;;;5053413;28;20041;-76
2023/06/07 11:18:55;;;;;;;10.95;3.60;;;;;;;;;;5033325;28;20056;-78
2023/06/07 11:21:21;;;;;;;8.88;2.80;;;;;;;;;;5033360;28;20555;-76
2023/06/07 11:24:07;;;;;;;9.50;3.13;;;;;;;;;;5049932;28;20540;-76
2023/06/07 11:26:36;;;;;;;8.68;3.42;;;;;;;;;;5033333;28;20042;-77
2023/06/07 11:29:04;;;;;;;12.38;3.25;;;;;;;;;;5033008;28;20073;-76
2023/06/07 11:31:30;;;;;;;6.50;2.90;;;;;;;;;;5033298;28;20041;-78
2023/06/07 11:33:56;;;;;;;10.98;3.40;;;;;;;;;;5041335;28;20514;-75
2023/06/07 11:36:22;;;;;;;9.27;3.28;;;;;;;;;;5034992;28;20551;-75
2023/06/07 11:38:54;;;;;;;12.23;3.25;;;;;;;;;;5050711;28;20135;-75
2023/06/07 11:41:23;;;;;;;7.07;2.83;;;;;;;;;;5052701;28;20041;-76
2023/06/07 11:43:49;;;;;;;8.38;3.08;;;;;;;;;;5033902;28;20036;-76
2023/06/07 11:46:16;;;;;;;8.75;3.30;;;;;;;;;;5051634;28;20056;-76
2023/06/07 11:48:42;;;;;;;9.00;3.10;;;;;;;;;;5053207;28;20500;-76
2023/06/07 11:51:08;;;;;;;9.95;3.08;;;;;;;;;;5052738;28;20127;-76
2023/06/07 11:53:34;;;;;;;7.47;3.22;;;;;;;;;;5051085;28;20120;-77
2023/06/07 11:56:01;;;;;;;10.18;3.15;;;;;;;;;;5030853;28;20074;-78
2023/06/07 11:58:27;;;;;;;9.05;3.15;;;;;;;;;;5050485;28;20033;-79
2023/06/07 12:00:53;;;;;;;8.00;3.25;;;;;;;;;;5050299;28;20123;-77
2023/06/07 12:03:21;;;;;;;8.98;3.40;;;;;;;;;;5067288;28;20482;-78
2023/06/07 12:05:47;;;;;;;8.50;3.35;;;;;;;;;;5067807;28;20052;-77
2023/06/07 12:08:16;;;;;;;9.75;3.00;;;;;;;;;;5049214;28;20119;-78
2023/06/07 12:10:45;;;;;;;8.30;3.10;;;;;;;;;;5047928;28;20068;-78
2023/06/07 12:13:21;;;;;;;8.48;3.03;;;;;;;;;;5032421;28;20413;-78
2023/06/07 12:15:49;;;;;;;9.65;3.38;;;;;;;;;;5014867;28;20107;-77
2023/06/07 12:18:25;;;;;;;9.48;3.40;;;;;;;;;;5029967;28;20046;-78
2023/06/07 12:21:01;;;;;;;8.88;3.00;;;;;;;;;;4996262;28;20136;-78
2023/06/07 12:23:27;;;;;;;7.47;3.00;;;;;;;;;;5045974;28;20052;-78
2023/06/07 12:26:05;;;;;;;9.23;3.33;;;;;;;;;;5049943;28;20336;-78
2023/06/07 12:28:31;;;;;;;9.95;3.30;;;;;;;;;;5051618;28;20080;-78
2023/06/07 12:30:57;;;;;;;9.23;3.47;;;;;;;;;;5051633;28;20063;-77
2023/06/07 12:33:26;;;;;;;12.43;3.42;;;;;;;;;;5051982;28;20055;-77
2023/06/07 12:35:52;;;;;;;7.97;3.20;;;;;;;;;;5067428;28;20053;-78
2023/06/07 12:38:23;;;;;;;10.38;3.17;;;;;;;;;;5051616;28;20478;-78
2023/06/07 12:40:49;;;;;;;9.73;3.33;;;;;;;;;;5051694;28;20068;-78
2023/06/07 12:43:15;;;;;;;10.63;3.20;;;;;;;;;;5051393;28;20102;-78
2023/06/07 12:45:41;;;;;;;7.75;3.40;;;;;;;;;;5032089;28;20132;-75
2023/06/07 12:48:07;;;;;;;12.27;3.90;;;;;;;;;;5048562;28;20045;-75
2023/06/07 12:50:34;;;;;;;11.90;3.50;;;;;;;;;;5048557;28;20056;-75
2023/06/07 12:53:00;;;;;;;11.85;3.65;;;;;;;;;;5048520;28;20041;-76
2023/06/07 12:55:26;;;;;;;9.18;3.50;;;;;;;;;;5049279;28;20139;-75
2023/06/07 12:57:52;;;;;;;11.07;3.83;;;;;;;;;;5061664;28;20052;-75
2023/06/07 13:00:18;;;;;;;10.43;3.83;;;;;;;;;;5032004;28;20042;-75
2023/06/07 13:02:45;;;;;;;9.45;3.70;;;;;;;;;;5030550;28;20152;-75
2023/06/07 13:05:11;;;;;;;10.07;3.45;;;;;;;;;;5032995;28;20053;-75
2023/06/07 13:07:39;;;;;;;10.23;3.70;;;;;;;;;;5032716;28;20065;-75
2023/06/07 13:10:05;;;;;;;13.00;3.67;;;;;;;;;;5032937;28;20076;-76
2023/06/07 13:12:31;;;;;;;8.82;3.42;;;;;;;;;;5033153;28;20103;-74
2023/06/07 13:14:57;;;;;;;13.15;3.90;;;;;;;;;;5032892;28;20045;-75
2023/06/07 13:17:24;;;;;;;11.43;4.07;;;;;;;;;;5032985;28;20059;-75
2023/06/07 13:19:50;;;;;;;11.63;3.72;;;;;;;;;;5033041;28;20133;-75
2023/06/07 13:22:16;;;;;;;11.02;3.85;;;;;;;;;;5067328;28;20151;-72
2023/06/07 13:24:43;;;;;;;12.27;4.07;;;;;;;;;;5054377;28;20051;-72
2023/06/07 13:27:09;;;;;;;10.35;3.88;;;;;;;;;;5055575;28;20032;-72
2023/06/07 13:29:35;;;;;;;11.20;3.95;;;;;;;;;;5055382;28;20041;-72
2023/06/07 13:32:01;;;;;;;14.23;4.22;;;;;;;;;;5054669;28;20048;-71
2023/06/07 13:34:27;;;;;;;11.32;4.18;;;;;;;;;;5055076;28;20049;-72
2023/06/07 13:36:55;;;;;;;11.00;4.53;;;;;;;;;;5055462;28;20527;-72
2023/06/07 13:39:21;;;;;;;11.65;4.38;;;;;;;;;;5037313;28;20048;-72
2023/06/07 13:41:47;;;;;;;10.88;4.00;;;;;;;;;;5055284;28;20041;-71
2023/06/07 13:44:14;;;;;;;12.63;4.43;;;;;;;;;;5055169;28;20383;-73
2023/06/07 13:46:40;;;;;;;13.95;4.65;;;;;;;;;;5037314;28;20061;-72
2023/06/07 13:49:06;;;;;;;12.93;4.40;;;;;;;;;;5055140;28;20060;-72
2023/06/07 13:51:35;;;;;;;11.68;4.18;;;;;;;;;;5054923;28;20394;-72
2023/06/07 13:54:02;;;;;;;10.02;4.10;;;;;;;;;;5054664;28;20045;-72
2023/06/07 13:56:28;;;;;;;11.75;3.92;;;;;;;;;;5055459;28;20060;-72
2023/06/07 13:58:55;;;;;;;13.98;4.00;;;;;;;;;;5054859;28;20516;-71
2023/06/07 14:01:21;;;;;;;11.65;3.90;;;;;;;;;;5037265;28;20453;-71
2023/06/07 14:03:47;;;;;;;9.45;3.70;;;;;;;;;;5069925;28;20086;-72
2023/06/07 14:06:13;;;;;;;14.25;3.83;;;;;;;;;;5054584;28;20421;-72
2023/06/07 14:08:39;;;;;;;9.65;3.90;;;;;;;;;;5048723;28;20049;-72
2023/06/07 14:11:05;;;;;;;11.38;4.03;;;;;;;;;;5017233;28;20124;-72
2023/06/07 14:13:31;;;;;;;12.23;4.30;;;;;;;;;;5034818;28;20148;-72
2023/06/07 14:15:58;;;;;;;8.43;3.92;;;;;;;;;;5033602;28;20084;-71
2023/06/07 14:18:25;;;;;;;12.98;4.28;;;;;;;;;;5038594;28;20068;-72
2023/06/07 14:20:51;;;;;;;12.50;4.20;;;;;;;;;;5054285;28;20088;-71
2023/06/07 14:23:17;;;;;;;15.85;4.45;;;;;;;;;;5053789;28;20087;-71
2023/06/07 14:25:43;;;;;;;11.00;4.10;;;;;;;;;;5054670;28;20465;-72
2023/06/07 14:28:09;;;;;;;12.20;3.95;;;;;;;;;;5036225;28;20513;-72
2023/06/07 14:30:35;;;;;;;11.75;4.22;;;;;;;;;;5034572;28;20056;-72
2023/06/07 14:33:02;;;;;;;11.32;4.00;;;;;;;;;;5036715;28;20053;-72
2023/06/07 14:35:28;;;;;;;13.38;4.22;;;;;;;;;;5054088;28;20154;-70